createdAt,value
2019-03-26T00:00:34.961Z,0.80
2019-03-26T00:03:04.459Z,1.13
2019-03-26T00:05:33.932Z,1.30
2019-03-26T00:08:03.438Z,0.90
2019-03-26T00:10:32.901Z,0.90
2019-03-26T00:13:02.373Z,1.20
2019-03-26T00:15:31.857Z,0.90
2019-03-26T00:18:01.323Z,0.60
2019-03-26T00:20:30.776Z,0.93
2019-03-26T00:23:00.272Z,0.97
2019-03-26T00:25:29.740Z,1.00
2019-03-26T00:27:59.206Z,1.23
2019-03-26T00:30:28.699Z,1.00
2019-03-26T00:32:58.159Z,0.80
2019-03-26T00:35:27.624Z,0.60
2019-03-26T00:37:57.117Z,1.13
2019-03-26T00:40:26.582Z,1.00
2019-03-26T00:42:56.084Z,0.80
2019-03-26T00:45:25.595Z,0.70
2019-03-26T00:47:55.065Z,0.80
2019-03-26T00:50:24.529Z,0.70
2019-03-26T00:52:54.113Z,0.80
2019-03-26T00:55:23.728Z,0.87
2019-03-26T00:57:53.209Z,0.90
2019-03-26T01:00:40.982Z,0.90
2019-03-26T01:03:10.453Z,0.70
2019-03-26T01:05:39.931Z,1.20
2019-03-26T01:08:09.418Z,0.80
2019-03-26T01:10:38.889Z,0.70
2019-03-26T01:13:08.398Z,1.50
2019-03-26T01:15:37.807Z,0.80
2019-03-26T01:18:07.270Z,1.00
2019-03-26T01:20:36.775Z,1.00
2019-03-26T01:23:06.264Z,1.00
2019-03-26T01:25:35.912Z,1.03
2019-03-26T01:28:05.580Z,1.50
2019-03-26T01:30:35.065Z,1.07
2019-03-26T01:33:04.472Z,1.17
2019-03-26T01:35:33.937Z,0.90
2019-03-26T01:38:03.431Z,0.70
2019-03-26T01:40:32.898Z,1.13
2019-03-26T01:43:02.393Z,1.40
2019-03-26T01:45:31.879Z,1.27
2019-03-26T01:48:01.376Z,1.13
2019-03-26T01:50:30.834Z,1.20
2019-03-26T01:53:00.330Z,1.30
2019-03-26T01:55:29.823Z,1.47
2019-03-26T01:57:59.292Z,1.10
2019-03-26T02:00:28.759Z,1.27
2019-03-26T02:02:58.311Z,1.30
2019-03-26T02:05:27.785Z,1.00
2019-03-26T02:07:57.246Z,1.17
2019-03-26T02:10:26.737Z,1.10
2019-03-26T02:12:56.299Z,1.00
2019-03-26T02:15:30.722Z,0.80
2019-03-26T02:18:00.583Z,1.10
2019-03-26T02:20:30.042Z,1.13
2019-03-26T02:22:59.631Z,1.30
2019-03-26T02:25:29.091Z,1.63
2019-03-26T02:27:58.588Z,0.80
2019-03-26T02:30:28.731Z,0.80
2019-03-26T02:32:58.937Z,0.97
2019-03-26T02:35:28.417Z,0.90
2019-03-26T02:37:58.125Z,0.97
2019-03-26T02:40:27.639Z,0.80
2019-03-26T02:42:57.099Z,1.13
2019-03-26T02:45:26.524Z,1.07
2019-03-26T02:47:55.996Z,0.97
2019-03-26T02:50:25.489Z,1.03
2019-03-26T02:52:54.976Z,0.80
2019-03-26T02:55:24.439Z,1.40
2019-03-26T02:57:53.897Z,1.10
2019-03-26T03:00:23.758Z,0.90
2019-03-26T03:02:53.215Z,1.50
2019-03-26T03:05:42.073Z,1.40
2019-03-26T03:08:11.534Z,1.50
2019-03-26T03:10:41.001Z,1.27
2019-03-26T03:13:10.493Z,1.20
2019-03-26T03:15:39.959Z,0.90
2019-03-26T03:18:09.426Z,1.40
2019-03-26T03:20:38.911Z,1.40
2019-03-26T03:23:08.379Z,1.30
2019-03-26T03:25:38.041Z,1.00
2019-03-26T03:28:07.547Z,1.23
2019-03-26T03:30:37.027Z,0.83
2019-03-26T03:33:06.488Z,1.03
2019-03-26T03:35:51.354Z,0.90
2019-03-26T03:38:07.305Z,1.43
2019-03-26T03:40:36.795Z,0.90
2019-03-26T03:43:06.259Z,0.93
2019-03-26T03:45:35.898Z,0.93
2019-03-26T03:48:05.591Z,1.00
2019-03-26T03:50:35.075Z,1.17
2019-03-26T03:53:04.543Z,1.03
2019-03-26T03:55:34.037Z,1.37
2019-03-26T03:58:03.696Z,1.00
2019-03-26T04:00:36.022Z,1.10
2019-03-26T04:03:06.128Z,1.00
2019-03-26T04:05:36.044Z,0.90
2019-03-26T04:08:05.531Z,1.10
2019-03-26T04:10:34.982Z,0.93
2019-03-26T04:13:04.567Z,0.90
2019-03-26T04:15:35.052Z,0.90
2019-03-26T04:18:04.911Z,1.40
2019-03-26T04:20:34.436Z,0.90
2019-03-26T04:23:03.918Z,1.27
2019-03-26T04:25:33.383Z,1.07
2019-03-26T04:28:02.846Z,1.20
2019-03-26T04:30:32.675Z,0.90
2019-03-26T04:33:02.233Z,1.00
2019-03-26T04:35:31.796Z,1.20
2019-03-26T04:38:01.287Z,1.17
2019-03-26T04:40:30.748Z,1.10
2019-03-26T04:43:00.230Z,1.20
2019-03-26T04:45:29.723Z,1.00
2019-03-26T04:47:59.224Z,1.77
2019-03-26T04:50:28.746Z,1.40
2019-03-26T04:52:58.244Z,1.40
2019-03-26T04:55:27.823Z,1.57
2019-03-26T04:57:57.306Z,1.40
2019-03-26T05:00:26.772Z,1.50
2019-03-26T05:02:56.346Z,0.83
2019-03-26T05:05:26.004Z,1.10
2019-03-26T05:07:57.261Z,1.40
2019-03-26T05:10:26.728Z,1.27
2019-03-26T05:12:56.727Z,1.80
2019-03-26T05:15:26.188Z,1.67
2019-03-26T05:17:56.835Z,1.70
2019-03-26T05:20:26.428Z,1.30
2019-03-26T05:22:56.073Z,1.57
2019-03-26T05:25:25.738Z,1.33
2019-03-26T05:27:55.220Z,1.57
2019-03-26T05:30:24.687Z,1.07
2019-03-26T05:32:54.193Z,1.30
2019-03-26T05:35:23.695Z,1.50
2019-03-26T05:37:53.154Z,1.70
2019-03-26T05:40:22.614Z,1.90
2019-03-26T05:42:52.108Z,1.77
2019-03-26T05:45:21.769Z,1.80
2019-03-26T05:47:51.239Z,2.13
2019-03-26T05:50:20.927Z,1.83
2019-03-26T05:52:50.461Z,2.10
2019-03-26T05:55:19.938Z,2.13
2019-03-26T05:58:08.831Z,2.30
2019-03-26T06:00:38.305Z,2.37
2019-03-26T06:03:07.765Z,2.27
2019-03-26T06:05:37.261Z,2.00
2019-03-26T06:08:06.714Z,2.00
2019-03-26T06:10:36.385Z,2.30
2019-03-26T06:13:05.869Z,2.20
2019-03-26T06:15:35.347Z,2.10
2019-03-26T06:18:04.858Z,1.87
2019-03-26T06:20:34.349Z,2.00
2019-03-26T06:23:03.803Z,1.67
2019-03-26T06:25:33.270Z,2.20
2019-03-26T06:28:02.934Z,1.60
2019-03-26T06:30:32.437Z,2.40
2019-03-26T06:33:01.908Z,1.67
2019-03-26T06:35:31.405Z,1.70
2019-03-26T06:38:00.878Z,1.50
2019-03-26T06:40:30.364Z,1.50
2019-03-26T06:42:59.842Z,1.83
2019-03-26T06:45:29.295Z,1.80
2019-03-26T06:47:58.787Z,1.63
2019-03-26T06:50:28.408Z,1.40
2019-03-26T06:52:57.860Z,1.20
2019-03-26T06:55:27.444Z,1.50
2019-03-26T06:57:56.902Z,1.93
2019-03-26T07:00:34.477Z,1.87
2019-03-26T07:03:05.464Z,1.60
2019-03-26T07:05:35.005Z,1.53
2019-03-26T07:08:04.511Z,1.50
2019-03-26T07:10:34.271Z,1.10
2019-03-26T07:13:03.723Z,1.40
2019-03-26T07:15:33.257Z,1.43
2019-03-26T07:18:02.712Z,0.93
2019-03-26T07:20:32.223Z,1.73
2019-03-26T07:23:01.721Z,1.10
2019-03-26T07:25:32.849Z,1.10
2019-03-26T07:28:02.364Z,1.43
2019-03-26T07:30:40.290Z,1.40
2019-03-26T07:33:09.755Z,1.40
2019-03-26T07:35:39.218Z,1.20
2019-03-26T07:38:08.721Z,1.17
2019-03-26T07:40:38.181Z,1.30
2019-03-26T07:43:07.642Z,1.10
2019-03-26T07:45:37.142Z,1.20
2019-03-26T07:48:06.593Z,1.23
2019-03-26T07:50:36.093Z,1.60
2019-03-26T07:53:05.566Z,1.37
2019-03-26T07:55:35.033Z,1.33
2019-03-26T07:58:04.501Z,1.20
2019-03-26T08:00:35.786Z,1.60
2019-03-26T08:03:05.850Z,2.13
2019-03-26T08:05:35.329Z,1.30
2019-03-26T08:08:04.917Z,1.40
2019-03-26T08:10:34.487Z,1.37
2019-03-26T08:13:03.993Z,1.20
2019-03-26T08:15:33.450Z,1.90
2019-03-26T08:18:02.834Z,1.23
2019-03-26T08:20:32.315Z,1.40
2019-03-26T08:23:01.808Z,1.73
2019-03-26T08:25:33.764Z,2.40
2019-03-26T08:28:04.877Z,1.97
2019-03-26T08:30:33.675Z,1.90
2019-03-26T08:33:03.236Z,1.43
2019-03-26T08:35:32.702Z,1.70
2019-03-26T08:38:12.392Z,1.40
2019-03-26T08:40:33.369Z,1.60
2019-03-26T08:43:02.828Z,1.70
2019-03-26T08:45:32.332Z,1.20
2019-03-26T08:48:01.910Z,1.60
2019-03-26T08:50:31.392Z,1.87
2019-03-26T08:53:01.161Z,1.90
2019-03-26T08:55:30.732Z,1.40
2019-03-26T08:58:00.259Z,1.60
2019-03-26T09:00:32.089Z,2.07
2019-03-26T09:03:01.029Z,1.63
2019-03-26T09:05:30.486Z,1.67
2019-03-26T09:08:00.286Z,1.57
2019-03-26T09:10:29.733Z,1.63
2019-03-26T09:12:59.226Z,2.27
2019-03-26T09:15:28.708Z,1.40
2019-03-26T09:18:00.309Z,1.80
2019-03-26T09:20:29.362Z,1.77
2019-03-26T09:22:58.837Z,1.20
2019-03-26T09:25:28.305Z,1.47
2019-03-26T09:27:58.043Z,1.47
2019-03-26T09:30:27.529Z,1.13
2019-03-26T09:32:56.991Z,1.27
2019-03-26T09:35:26.454Z,1.17
2019-03-26T09:37:55.888Z,1.60
2019-03-26T09:40:25.355Z,1.47
2019-03-26T09:42:54.811Z,1.33
2019-03-26T09:45:24.347Z,1.40
2019-03-26T09:47:53.818Z,1.37
2019-03-26T09:50:33.447Z,1.13
2019-03-26T09:53:02.920Z,1.27
2019-03-26T09:55:32.406Z,1.50
2019-03-26T09:58:01.910Z,1.53
2019-03-26T10:00:31.409Z,1.40
2019-03-26T10:03:01.220Z,1.50
2019-03-26T10:05:30.728Z,1.63
2019-03-26T10:08:00.204Z,1.40
2019-03-26T10:10:29.698Z,1.40
2019-03-26T10:12:59.207Z,1.37
2019-03-26T10:15:28.704Z,1.50
2019-03-26T10:17:58.180Z,2.03
2019-03-26T10:20:27.683Z,2.00
2019-03-26T10:22:57.148Z,1.47
2019-03-26T10:25:26.649Z,1.53
2019-03-26T10:27:56.148Z,1.40
2019-03-26T10:30:39.282Z,1.70
2019-03-26T10:33:08.787Z,1.27
2019-03-26T10:35:38.260Z,1.53
2019-03-26T10:38:07.754Z,1.20
2019-03-26T10:40:39.058Z,1.40
2019-03-26T10:43:08.517Z,1.67
2019-03-26T10:45:37.995Z,1.20
2019-03-26T10:48:07.493Z,0.90
2019-03-26T10:50:36.994Z,1.30
2019-03-26T10:53:06.468Z,1.50
2019-03-26T10:55:36.063Z,1.20
2019-03-26T10:58:05.535Z,1.30
2019-03-26T11:00:35.007Z,1.50
2019-03-26T11:03:04.516Z,1.20
2019-03-26T11:05:34.000Z,1.20
2019-03-26T11:08:03.471Z,1.33
2019-03-26T11:10:32.974Z,1.13
2019-03-26T11:13:02.454Z,1.90
2019-03-26T11:15:31.929Z,1.50
2019-03-26T11:18:01.434Z,1.80
2019-03-26T11:20:30.894Z,1.70
2019-03-26T11:23:00.401Z,1.20
2019-03-26T11:25:29.868Z,1.53
2019-03-26T11:27:59.351Z,1.20
2019-03-26T11:30:28.818Z,1.10
2019-03-26T11:32:58.302Z,1.23
2019-03-26T11:35:27.827Z,1.03
2019-03-26T11:37:57.449Z,1.13
2019-03-26T11:40:26.944Z,1.50
2019-03-26T11:42:56.448Z,1.60
2019-03-26T11:45:25.960Z,1.70
2019-03-26T11:47:55.437Z,1.30
2019-03-26T11:50:24.915Z,1.50
2019-03-26T11:52:54.411Z,1.10
2019-03-26T11:55:23.894Z,1.27
2019-03-26T11:57:53.391Z,1.10
2019-03-26T12:00:24.556Z,1.67
2019-03-26T12:02:54.010Z,1.87
2019-03-26T12:05:23.501Z,1.40
2019-03-26T12:07:52.998Z,1.33
2019-03-26T12:10:22.468Z,1.30
2019-03-26T12:12:51.972Z,1.60
2019-03-26T12:15:21.454Z,1.40
2019-03-26T12:17:50.933Z,1.50
2019-03-26T12:20:20.432Z,1.20
2019-03-26T12:22:49.902Z,1.40
2019-03-26T12:25:19.364Z,1.13
2019-03-26T12:27:48.871Z,1.30
2019-03-26T12:30:23.022Z,1.27
2019-03-26T12:32:52.533Z,1.47
2019-03-26T12:35:29.786Z,1.50
2019-03-26T12:37:59.785Z,1.40
2019-03-26T12:40:29.254Z,1.40
2019-03-26T12:42:58.856Z,1.63
2019-03-26T12:45:28.359Z,1.33
2019-03-26T12:47:57.825Z,1.70
2019-03-26T12:50:27.299Z,1.53
2019-03-26T12:52:56.804Z,1.30
2019-03-26T12:55:26.279Z,1.50
2019-03-26T12:57:55.853Z,1.50
2019-03-26T13:00:31.762Z,1.30
2019-03-26T13:03:01.932Z,1.30
2019-03-26T13:05:31.416Z,1.20
2019-03-26T13:08:00.916Z,1.40
2019-03-26T13:10:30.386Z,1.40
2019-03-26T13:12:59.856Z,1.37
2019-03-26T13:15:29.359Z,2.03
2019-03-26T13:17:58.830Z,1.80
2019-03-26T13:20:28.315Z,1.70
2019-03-26T13:22:57.828Z,1.57
2019-03-26T13:25:27.307Z,1.30
2019-03-26T13:27:57.099Z,1.13
2019-03-26T13:30:26.598Z,1.50
2019-03-26T13:32:56.200Z,1.30
2019-03-26T13:35:25.758Z,1.40
2019-03-26T13:37:55.255Z,1.47
2019-03-26T13:40:27.430Z,1.50
2019-03-26T13:42:56.914Z,1.30
2019-03-26T13:45:26.380Z,1.40
2019-03-26T13:47:55.848Z,1.43
2019-03-26T13:50:25.349Z,1.70
2019-03-26T13:52:54.838Z,1.80
2019-03-26T13:55:24.350Z,1.10
2019-03-26T13:57:53.883Z,1.13
2019-03-26T14:00:33.107Z,1.60
2019-03-26T14:03:02.608Z,1.53
2019-03-26T14:05:32.077Z,1.50
2019-03-26T14:08:01.491Z,1.40
2019-03-26T14:10:40.669Z,1.40
2019-03-26T14:13:02.238Z,1.47
2019-03-26T14:15:31.754Z,1.53
2019-03-26T14:18:01.259Z,2.13
2019-03-26T14:20:30.782Z,1.30
2019-03-26T14:23:00.281Z,1.97
2019-03-26T14:25:29.780Z,1.40
2019-03-26T14:27:59.363Z,1.60
2019-03-26T14:30:37.634Z,1.63
2019-03-26T14:33:07.230Z,1.53
2019-03-26T14:35:36.923Z,1.50
2019-03-26T14:38:06.415Z,1.40
2019-03-26T14:40:35.872Z,1.70
2019-03-26T14:43:06.057Z,1.53
2019-03-26T14:45:35.560Z,1.57
2019-03-26T14:48:05.037Z,1.23
2019-03-26T14:50:34.530Z,1.57
2019-03-26T14:53:23.438Z,1.50
2019-03-26T14:55:52.913Z,1.60
2019-03-26T14:58:22.389Z,1.90
2019-03-26T15:00:51.892Z,1.40
2019-03-26T15:03:21.370Z,1.67
2019-03-26T15:05:50.957Z,1.47
2019-03-26T15:08:39.819Z,1.27
2019-03-26T15:11:28.648Z,1.40
2019-03-26T15:13:58.160Z,1.50
2019-03-26T15:16:27.630Z,1.60
2019-03-26T15:18:57.223Z,1.50
2019-03-26T15:21:26.817Z,1.93
2019-03-26T15:23:56.299Z,1.50
2019-03-26T15:26:45.317Z,1.30
2019-03-26T15:29:14.795Z,1.87
2019-03-26T15:31:44.285Z,1.80
2019-03-26T15:34:13.842Z,1.33
2019-03-26T15:36:43.406Z,1.73
2019-03-26T15:39:12.901Z,1.70
2019-03-26T15:41:42.493Z,1.60
2019-03-26T15:44:11.972Z,1.90
2019-03-26T15:46:41.461Z,1.70
2019-03-26T15:49:10.941Z,2.27
2019-03-26T15:51:40.424Z,1.90
2019-03-26T15:54:09.916Z,1.80
2019-03-26T15:56:39.523Z,1.97
2019-03-26T15:59:09.047Z,2.10
2019-03-26T16:01:38.544Z,2.40
2019-03-26T16:04:08.058Z,2.13
2019-03-26T16:06:37.536Z,2.43
2019-03-26T16:09:09.118Z,2.17
2019-03-26T16:11:38.705Z,2.53
2019-03-26T16:14:08.336Z,2.37
2019-03-26T16:16:39.044Z,2.43
2019-03-26T16:19:08.488Z,2.30
2019-03-26T16:21:38.082Z,2.50
2019-03-26T16:24:07.651Z,2.40
2019-03-26T16:26:37.118Z,3.00
2019-03-26T16:29:06.645Z,3.47
2019-03-26T16:31:36.180Z,3.00
2019-03-26T16:34:05.655Z,2.30
2019-03-26T16:36:35.154Z,2.80
2019-03-26T16:39:06.672Z,2.43
2019-03-26T16:41:48.380Z,2.10
2019-03-26T16:44:07.346Z,2.60
2019-03-26T16:46:36.849Z,2.50
2019-03-26T16:49:06.326Z,2.40
2019-03-26T16:51:37.004Z,2.53
2019-03-26T16:54:06.479Z,2.33
2019-03-26T16:56:35.958Z,4.00
2019-03-26T16:59:05.419Z,3.23
2019-03-26T17:01:34.939Z,3.57
2019-03-26T17:04:04.407Z,2.67
2019-03-26T17:06:33.919Z,2.60
2019-03-26T17:09:04.299Z,2.93
2019-03-26T17:11:33.862Z,2.80
2019-03-26T17:14:03.459Z,2.33
2019-03-26T17:16:32.933Z,2.67
2019-03-26T17:19:02.436Z,2.70
2019-03-26T17:21:31.951Z,2.33
2019-03-26T17:24:01.413Z,2.80
2019-03-26T17:26:31.021Z,2.33
2019-03-26T17:29:00.526Z,2.40
2019-03-26T17:31:30.196Z,2.50
2019-03-26T17:33:59.669Z,2.07
2019-03-26T17:36:30.181Z,2.80
2019-03-26T17:38:59.649Z,2.20
2019-03-26T17:41:29.148Z,2.80
2019-03-26T17:43:58.624Z,2.40
2019-03-26T17:46:28.079Z,2.43
2019-03-26T17:48:57.585Z,2.27
2019-03-26T17:51:27.040Z,2.17
2019-03-26T17:53:56.527Z,1.90
2019-03-26T17:56:26.010Z,2.97
2019-03-26T17:58:55.491Z,2.70
2019-03-26T18:01:24.993Z,2.20
2019-03-26T18:03:54.488Z,1.87
2019-03-26T18:06:23.960Z,2.30
2019-03-26T18:08:53.463Z,2.73
2019-03-26T18:11:22.944Z,2.10
2019-03-26T18:13:52.424Z,2.37
2019-03-26T18:16:21.924Z,1.97
2019-03-26T18:18:51.386Z,4.17
2019-03-26T18:21:20.850Z,2.90
2019-03-26T18:23:50.364Z,5.40
2019-03-26T18:26:19.845Z,2.90
2019-03-26T18:28:49.353Z,2.67
2019-03-26T18:31:18.901Z,2.30
2019-03-26T18:33:48.365Z,2.73
2019-03-26T18:36:17.928Z,2.63
2019-03-26T18:38:47.383Z,2.90
2019-03-26T18:41:16.874Z,2.63
2019-03-26T18:43:46.341Z,3.70
2019-03-26T18:46:15.909Z,2.67
2019-03-26T18:48:45.404Z,3.10
2019-03-26T18:51:14.866Z,3.70
2019-03-26T18:53:44.319Z,3.13
2019-03-26T18:56:13.817Z,2.77
2019-03-26T18:58:43.290Z,2.23
2019-03-26T19:01:12.762Z,2.83
2019-03-26T19:03:42.462Z,2.60
2019-03-26T19:06:11.887Z,2.70
2019-03-26T19:08:41.354Z,3.23
2019-03-26T19:11:10.824Z,3.77
2019-03-26T19:13:40.336Z,2.93
2019-03-26T19:16:09.780Z,4.97
2019-03-26T19:18:39.244Z,5.17
2019-03-26T19:21:08.748Z,8.13
2019-03-26T19:23:38.251Z,8.20
2019-03-26T19:26:07.759Z,11.23
2019-03-26T19:28:37.224Z,9.43
2019-03-26T19:31:06.700Z,7.10
2019-03-26T19:33:36.200Z,7.20
2019-03-26T19:36:05.705Z,6.23
2019-03-26T19:38:35.203Z,5.17
2019-03-26T19:41:04.662Z,5.10
2019-03-26T19:43:34.266Z,5.00
2019-03-26T19:46:03.770Z,4.70
2019-03-26T19:48:33.331Z,5.03
2019-03-26T19:51:02.842Z,5.97
2019-03-26T19:53:32.331Z,6.03
2019-03-26T19:56:01.793Z,4.43
2019-03-26T19:58:31.294Z,5.03
2019-03-26T20:01:02.146Z,4.10
2019-03-26T20:03:31.646Z,5.67
2019-03-26T20:06:12.702Z,5.07
2019-03-26T20:08:32.368Z,3.83
2019-03-26T20:11:01.859Z,6.40
2019-03-26T20:13:31.323Z,5.90
2019-03-26T20:16:00.862Z,7.17
2019-03-26T20:18:30.381Z,6.53
2019-03-26T20:20:59.954Z,12.10
2019-03-26T20:23:29.401Z,8.00
2019-03-26T20:26:06.971Z,9.03
2019-03-26T20:28:36.445Z,6.70
2019-03-26T20:31:05.920Z,5.63
2019-03-26T20:33:35.436Z,10.07
2019-03-26T20:36:04.876Z,7.67
2019-03-26T20:38:34.385Z,8.40
2019-03-26T20:41:03.855Z,6.70
2019-03-26T20:43:37.622Z,6.50
2019-03-26T20:46:05.872Z,6.10
2019-03-26T20:48:36.225Z,6.50
2019-03-26T20:51:05.701Z,6.20
2019-03-26T20:53:35.177Z,6.93
2019-03-26T20:56:04.656Z,6.00
2019-03-26T20:58:34.128Z,6.60
2019-03-26T21:01:03.594Z,6.50
2019-03-26T21:03:33.097Z,7.60
2019-03-26T21:06:02.578Z,5.17
2019-03-26T21:08:32.061Z,5.53
2019-03-26T21:11:01.524Z,6.40
2019-03-26T21:13:30.959Z,5.37
2019-03-26T21:16:00.421Z,5.53
2019-03-26T21:18:30.020Z,6.60
2019-03-26T21:20:59.692Z,6.57
2019-03-26T21:23:29.456Z,5.90
2019-03-26T21:25:58.950Z,7.50
2019-03-26T21:28:28.410Z,7.03
2019-03-26T21:30:57.871Z,6.87
2019-03-26T21:33:27.395Z,5.37
2019-03-26T21:35:58.334Z,5.63
2019-03-26T21:38:27.804Z,4.77
2019-03-26T21:40:57.309Z,4.23
2019-03-26T21:43:26.788Z,5.70
2019-03-26T21:45:56.439Z,4.60
2019-03-26T21:48:25.935Z,4.97
2019-03-26T21:50:55.407Z,4.70
2019-03-26T21:53:24.914Z,5.83
2019-03-26T21:56:05.714Z,5.97
2019-03-26T21:58:25.611Z,5.27
2019-03-26T22:00:55.119Z,4.97
2019-03-26T22:03:24.660Z,5.27
2019-03-26T22:05:54.133Z,8.57
2019-03-26T22:08:23.616Z,8.60
2019-03-26T22:10:53.120Z,5.93
2019-03-26T22:13:22.647Z,6.80
2019-03-26T22:15:52.146Z,8.13
2019-03-26T22:18:21.635Z,7.10
2019-03-26T22:20:51.105Z,5.07
2019-03-26T22:23:22.486Z,5.60
2019-03-26T22:25:52.019Z,12.67
2019-03-26T22:28:21.630Z,12.80
2019-03-26T22:30:51.065Z,5.63
2019-03-26T22:33:39.956Z,4.87
2019-03-26T22:36:09.418Z,4.77
2019-03-26T22:38:38.880Z,4.63
2019-03-26T22:41:08.382Z,5.40
2019-03-26T22:43:37.853Z,4.67
2019-03-26T22:46:07.311Z,6.10
2019-03-26T22:48:36.805Z,5.30
2019-03-26T22:51:06.324Z,6.30
2019-03-26T22:53:35.793Z,8.63
2019-03-26T22:56:05.423Z,5.47
2019-03-26T22:58:34.875Z,5.53
2019-03-26T23:01:04.491Z,5.47
2019-03-26T23:03:33.943Z,4.50
2019-03-26T23:06:03.465Z,4.70
2019-03-26T23:08:33.064Z,4.93
2019-03-26T23:11:02.658Z,5.80
2019-03-26T23:13:32.235Z,6.23
2019-03-26T23:16:01.726Z,5.27
2019-03-26T23:18:31.281Z,4.27
2019-03-26T23:21:00.861Z,4.47
2019-03-26T23:23:30.353Z,4.27
2019-03-26T23:25:59.844Z,4.90
2019-03-26T23:28:29.305Z,4.17
2019-03-26T23:30:58.786Z,4.40
2019-03-26T23:33:28.266Z,4.30
2019-03-26T23:35:57.716Z,4.67
2019-03-26T23:38:27.219Z,3.90
2019-03-26T23:40:56.682Z,4.50
2019-03-26T23:43:26.151Z,3.93
2019-03-26T23:45:55.640Z,4.30
2019-03-26T23:48:25.101Z,4.40
2019-03-26T23:50:54.555Z,4.30
2019-03-26T23:53:24.050Z,4.33
2019-03-26T23:55:53.622Z,4.33
2019-03-26T23:58:23.367Z,4.47
